sensor_id;sensor_type;location;lat;lon;timestamp;temperature;humidity
69990;DHT22;57331;52.054;5.294;2023-06-26T00:01:34;25.10;43.60
69990;DHT22;57331;52.054;5.294;2023-06-26T00:06:28;22.90;42.90
69990;DHT22;57331;52.054;5.294;2023-06-26T00:08:55;22.80;43.00
69990;DHT22;57331;52.054;5.294;2023-06-26T00:11:23;22.80;43.00
69990;DHT22;57331;52.054;5.294;2023-06-26T00:13:50;23.50;33.80
69990;DHT22;57331;52.054;5.294;2023-06-26T00:16:17;24.80;43.90
69990;DHT22;57331;52.054;5.294;2023-06-26T00:18:44;24.40;43.60
69990;DHT22;57331;52.054;5.294;2023-06-26T00:21:11;22.70;38.10
69990;DHT22;57331;52.054;5.294;2023-06-26T00:26:06;22.90;34.00
69990;DHT22;57331;52.054;5.294;2023-06-26T00:28:33;22.80;37.00
69990;DHT22;57331;52.054;5.294;2023-06-26T00:31:00;23.00;41.70
69990;DHT22;57331;52.054;5.294;2023-06-26T00:33:28;25.40;43.20
69990;DHT22;57331;52.054;5.294;2023-06-26T00:35:56;25.10;43.20
69990;DHT22;57331;52.054;5.294;2023-06-26T00:38:23;22.90;39.80
69990;DHT22;57331;52.054;5.294;2023-06-26T00:50:43;24.80;44.10
69990;DHT22;57331;52.054;5.294;2023-06-26T00:53:11;23.60;33.20
69990;DHT22;57331;52.054;5.294;2023-06-26T00:55:38;23.10;43.80
69990;DHT22;57331;52.054;5.294;2023-06-26T00:58:05;23.90;44.30
69990;DHT22;57331;52.054;5.294;2023-06-26T01:00:33;24.60;44.50
69990;DHT22;57331;52.054;5.294;2023-06-26T01:03:00;23.60;44.60
69990;DHT22;57331;52.054;5.294;2023-06-26T01:05:28;23.50;33.80
69990;DHT22;57331;52.054;5.294;2023-06-26T01:07:57;23.50;33.70
69990;DHT22;57331;52.054;5.294;2023-06-26T01:12:55;22.30;43.80
69990;DHT22;57331;52.054;5.294;2023-06-26T01:15:22;22.30;43.60
69990;DHT22;57331;52.054;5.294;2023-06-26T01:17:51;22.40;43.70
69990;DHT22;57331;52.054;5.294;2023-06-26T01:20:19;22.40;33.10
69990;DHT22;57331;52.054;5.294;2023-06-26T01:28:35;23.40;33.70
69990;DHT22;57331;52.054;5.294;2023-06-26T01:31:05;24.10;45.40
69990;DHT22;57331;52.054;5.294;2023-06-26T01:36:00;24.60;46.30
69990;DHT22;57331;52.054;5.294;2023-06-26T01:38:27;24.60;46.50
69990;DHT22;57331;52.054;5.294;2023-06-26T01:46:06;23.10;35.40
69990;DHT22;57331;52.054;5.294;2023-06-26T01:48:42;22.20;46.50
69990;DHT22;57331;52.054;5.294;2023-06-26T01:51:10;23.60;47.50
69990;DHT22;57331;52.054;5.294;2023-06-26T01:53:41;21.90;46.70
69990;DHT22;57331;52.054;5.294;2023-06-26T01:56:14;22.10;47.10
69990;DHT22;57331;52.054;5.294;2023-06-26T01:58:45;22.80;36.20
69990;DHT22;57331;52.054;5.294;2023-06-26T02:03:40;23.50;48.10
69990;DHT22;57331;52.054;5.294;2023-06-26T02:06:07;24.00;48.40
69990;DHT22;57331;52.054;5.294;2023-06-26T02:13:29;23.40;43.90
69990;DHT22;57331;52.054;5.294;2023-06-26T02:15:56;22.40;48.60
69990;DHT22;57331;52.054;5.294;2023-06-26T02:20:51;22.20;48.50
69990;DHT22;57331;52.054;5.294;2023-06-26T02:23:21;22.90;49.30
69990;DHT22;57331;52.054;5.294;2023-06-26T02:25:48;21.10;48.40
69990;DHT22;57331;52.054;5.294;2023-06-26T02:30:42;21.30;48.90
69990;DHT22;57331;52.054;5.294;2023-06-26T02:33:09;21.10;49.30
69990;DHT22;57331;52.054;5.294;2023-06-26T02:38:03;23.40;50.70
69990;DHT22;57331;52.054;5.294;2023-06-26T02:40:31;21.50;49.90
69990;DHT22;57331;52.054;5.294;2023-06-26T02:45:26;22.70;52.10
69990;DHT22;57331;52.054;5.294;2023-06-26T02:50:20;22.50;52.20
69990;DHT22;57331;52.054;5.294;2023-06-26T02:55:29;22.80;52.80
69990;DHT22;57331;52.054;5.294;2023-06-26T02:57:57;23.30;53.10
69990;DHT22;57331;52.054;5.294;2023-06-26T03:02:53;22.60;53.20
69990;DHT22;57331;52.054;5.294;2023-06-26T03:15:14;22.50;54.20
69990;DHT22;57331;52.054;5.294;2023-06-26T03:20:13;20.60;49.00
69990;DHT22;57331;52.054;5.294;2023-06-26T03:22:48;22.80;54.40
69990;DHT22;57331;52.054;5.294;2023-06-26T03:25:16;20.40;49.50
69990;DHT22;57331;52.054;5.294;2023-06-26T03:32:41;20.50;53.90
69990;DHT22;57331;52.054;5.294;2023-06-26T03:35:08;21.60;54.70
69990;DHT22;57331;52.054;5.294;2023-06-26T03:37:36;22.80;55.50
69990;DHT22;57331;52.054;5.294;2023-06-26T03:40:04;20.80;54.30
69990;DHT22;57331;52.054;5.294;2023-06-26T03:44:59;22.30;55.60
69990;DHT22;57331;52.054;5.294;2023-06-26T03:49:55;21.40;56.20
69990;DHT22;57331;52.054;5.294;2023-06-26T03:52:22;22.80;56.90
69990;DHT22;57331;52.054;5.294;2023-06-26T04:04:42;20.90;57.40
69990;DHT22;57331;52.054;5.294;2023-06-26T04:19:31;22.50;57.30
69990;DHT22;57331;52.054;5.294;2023-06-26T04:29:28;22.40;57.20
69990;DHT22;57331;52.054;5.294;2023-06-26T04:34:26;20.40;55.70
69990;DHT22;57331;52.054;5.294;2023-06-26T04:36:54;22.30;56.60
69990;DHT22;57331;52.054;5.294;2023-06-26T04:41:48;20.50;55.70
69990;DHT22;57331;52.054;5.294;2023-06-26T04:44:15;21.80;56.50
69990;DHT22;57331;52.054;5.294;2023-06-26T04:49:10;22.30;56.30
69990;DHT22;57331;52.054;5.294;2023-06-26T04:51:37;22.10;56.00
69990;DHT22;57331;52.054;5.294;2023-06-26T04:54:08;21.00;42.90
69990;DHT22;57331;52.054;5.294;2023-06-26T04:59:03;21.10;55.30
69990;DHT22;57331;52.054;5.294;2023-06-26T05:01:30;20.90;42.20
69990;DHT22;57331;52.054;5.294;2023-06-26T05:06:26;21.60;54.80
69990;DHT22;57331;52.054;5.294;2023-06-26T05:11:20;22.50;54.90
69990;DHT22;57331;52.054;5.294;2023-06-26T05:13:47;20.20;53.70
69990;DHT22;57331;52.054;5.294;2023-06-26T05:16:14;22.40;54.50
69990;DHT22;57331;52.054;5.294;2023-06-26T05:21:08;21.60;54.30
69990;DHT22;57331;52.054;5.294;2023-06-26T05:23:35;19.80;45.30
69990;DHT22;57331;52.054;5.294;2023-06-26T05:26:03;20.80;54.20
69990;DHT22;57331;52.054;5.294;2023-06-26T05:28:30;22.50;54.50
69990;DHT22;57331;52.054;5.294;2023-06-26T05:30:58;20.20;53.10
69990;DHT22;57331;52.054;5.294;2023-06-26T05:33:27;21.10;40.70
69990;DHT22;57331;52.054;5.294;2023-06-26T05:35:54;21.10;40.80
69990;DHT22;57331;52.054;5.294;2023-06-26T05:40:49;20.80;52.70
69990;DHT22;57331;52.054;5.294;2023-06-26T05:45:53;20.80;52.40
69990;DHT22;57331;52.054;5.294;2023-06-26T05:48:20;20.20;52.30
69990;DHT22;57331;52.054;5.294;2023-06-26T05:50:47;19.80;48.60
69990;DHT22;57331;52.054;5.294;2023-06-26T05:55:42;22.30;53.00
69990;DHT22;57331;52.054;5.294;2023-06-26T05:58:12;19.90;51.90
69990;DHT22;57331;52.054;5.294;2023-06-26T06:03:09;21.10;40.00
69990;DHT22;57331;52.054;5.294;2023-06-26T06:08:05;22.50;53.10
69990;DHT22;57331;52.054;5.294;2023-06-26T06:12:59;21.20;49.50
69990;DHT22;57331;52.054;5.294;2023-06-26T06:15:26;19.90;51.70
69990;DHT22;57331;52.054;5.294;2023-06-26T06:17:56;22.50;53.00
69990;DHT22;57331;52.054;5.294;2023-06-26T06:22:50;22.70;52.90
69990;DHT22;57331;52.054;5.294;2023-06-26T06:32:39;20.30;51.20
69990;DHT22;57331;52.054;5.294;2023-06-26T06:40:05;21.80;39.30
69990;DHT22;57331;52.054;5.294;2023-06-26T06:42:33;20.50;50.80
69990;DHT22;57331;52.054;5.294;2023-06-26T06:45:04;23.20;52.40
69990;DHT22;57331;52.054;5.294;2023-06-26T06:47:33;22.40;42.70
69990;DHT22;57331;52.054;5.294;2023-06-26T06:50:00;20.20;51.10
69990;DHT22;57331;52.054;5.294;2023-06-26T06:52:36;22.60;52.40
69990;DHT22;57331;52.054;5.294;2023-06-26T06:55:04;22.70;52.30
69990;DHT22;57331;52.054;5.294;2023-06-26T06:57:36;20.40;50.90
69990;DHT22;57331;52.054;5.294;2023-06-26T07:00:09;23.10;45.00
69990;DHT22;57331;52.054;5.294;2023-06-26T07:02:37;22.40;40.70
69990;DHT22;57331;52.054;5.294;2023-06-26T07:07:33;20.90;51.50
69990;DHT22;57331;52.054;5.294;2023-06-26T07:10:09;23.20;42.70
69990;DHT22;57331;52.054;5.294;2023-06-26T07:12:36;22.00;51.30
69990;DHT22;57331;52.054;5.294;2023-06-26T07:15:04;23.70;51.50
69990;DHT22;57331;52.054;5.294;2023-06-26T07:17:32;21.30;49.30
69990;DHT22;57331;52.054;5.294;2023-06-26T07:20:01;22.20;37.30
69990;DHT22;57331;52.054;5.294;2023-06-26T07:24:55;22.20;50.30
69990;DHT22;57331;52.054;5.294;2023-06-26T07:27:22;21.10;49.60
69990;DHT22;57331;52.054;5.294;2023-06-26T07:29:49;21.10;49.40
69990;DHT22;57331;52.054;5.294;2023-06-26T07:32:16;23.50;50.60
69990;DHT22;57331;52.054;5.294;2023-06-26T07:39:37;23.10;49.90
69990;DHT22;57331;52.054;5.294;2023-06-26T07:42:04;22.70;49.10
69990;DHT22;57331;52.054;5.294;2023-06-26T07:46:58;23.60;42.90
69990;DHT22;57331;52.054;5.294;2023-06-26T07:49:25;21.30;47.60
69990;DHT22;57331;52.054;5.294;2023-06-26T07:56:58;22.50;36.80
69990;DHT22;57331;52.054;5.294;2023-06-26T07:59:27;23.00;34.50
69990;DHT22;57331;52.054;5.294;2023-06-26T08:01:55;21.90;45.30
69990;DHT22;57331;52.054;5.294;2023-06-26T08:04:26;21.90;36.80
69990;DHT22;57331;52.054;5.294;2023-06-26T08:06:56;22.70;35.20
69990;DHT22;57331;52.054;5.294;2023-06-26T08:09:25;22.90;35.50
69990;DHT22;57331;52.054;5.294;2023-06-26T08:11:53;23.60;46.40
69990;DHT22;57331;52.054;5.294;2023-06-26T08:19:16;21.30;36.50
69990;DHT22;57331;52.054;5.294;2023-06-26T08:21:44;22.70;33.00
69990;DHT22;57331;52.054;5.294;2023-06-26T08:26:46;23.70;32.70
69990;DHT22;57331;52.054;5.294;2023-06-26T08:29:14;22.40;31.60
69990;DHT22;57331;52.054;5.294;2023-06-26T08:31:42;22.60;43.20
69990;DHT22;57331;52.054;5.294;2023-06-26T08:36:37;22.10;42.60
69990;DHT22;57331;52.054;5.294;2023-06-26T08:41:32;21.50;40.60
69990;DHT22;57331;52.054;5.294;2023-06-26T08:46:28;22.90;42.20
69990;DHT22;57331;52.054;5.294;2023-06-26T08:48:56;22.90;42.10
69990;DHT22;57331;52.054;5.294;2023-06-26T08:51:25;22.30;31.00
69990;DHT22;57331;52.054;5.294;2023-06-26T08:53:59;25.00;33.40
69990;DHT22;57331;52.054;5.294;2023-06-26T08:56:40;23.20;27.80
69990;DHT22;57331;52.054;5.294;2023-06-26T08:59:08;22.00;38.80
69990;DHT22;57331;52.054;5.294;2023-06-26T09:01:37;23.10;27.60
69990;DHT22;57331;52.054;5.294;2023-06-26T09:06:33;24.20;34.00
69990;DHT22;57331;52.054;5.294;2023-06-26T09:16:26;22.50;36.50
69990;DHT22;57331;52.054;5.294;2023-06-26T09:18:55;22.80;36.30
69990;DHT22;57331;52.054;5.294;2023-06-26T09:23:52;28.30;27.20
69990;DHT22;57331;52.054;5.294;2023-06-26T09:26:21;24.80;24.40
69990;DHT22;57331;52.054;5.294;2023-06-26T09:28:48;25.20;32.10
69990;DHT22;57331;52.054;5.294;2023-06-26T09:34:05;23.50;32.10
69990;DHT22;57331;52.054;5.294;2023-06-26T09:36:32;24.80;22.40
69990;DHT22;57331;52.054;5.294;2023-06-26T09:39:06;25.70;32.70
69990;DHT22;57331;52.054;5.294;2023-06-26T09:41:37;22.90;32.30
69990;DHT22;57331;52.054;5.294;2023-06-26T09:46:33;23.50;32.30
69990;DHT22;57331;52.054;5.294;2023-06-26T09:49:08;23.90;32.20
69990;DHT22;57331;52.054;5.294;2023-06-26T09:51:36;25.20;32.70
69990;DHT22;57331;52.054;5.294;2023-06-26T09:54:04;25.60;24.20
69990;DHT22;57331;52.054;5.294;2023-06-26T09:56:32;23.30;31.50
69990;DHT22;57331;52.054;5.294;2023-06-26T09:59:04;23.50;29.50
69990;DHT22;57331;52.054;5.294;2023-06-26T10:01:32;24.90;21.50
69990;DHT22;57331;52.054;5.294;2023-06-26T10:06:50;25.80;29.20
69990;DHT22;57331;52.054;5.294;2023-06-26T10:09:19;25.20;20.40
69990;DHT22;57331;52.054;5.294;2023-06-26T10:11:56;26.80;29.20
69990;DHT22;57331;52.054;5.294;2023-06-26T10:14:27;24.00;26.90
69990;DHT22;57331;52.054;5.294;2023-06-26T10:16:58;25.60;18.80
69990;DHT22;57331;52.054;5.294;2023-06-26T10:19:27;26.40;27.40
69990;DHT22;57331;52.054;5.294;2023-06-26T10:24:23;26.70;27.80
69990;DHT22;57331;52.054;5.294;2023-06-26T10:26:58;26.90;26.60
69990;DHT22;57331;52.054;5.294;2023-06-26T10:29:27;25.40;26.10
69990;DHT22;57331;52.054;5.294;2023-06-26T10:31:57;25.10;17.80
69990;DHT22;57331;52.054;5.294;2023-06-26T10:34:25;25.00;19.80
69990;DHT22;57331;52.054;5.294;2023-06-26T10:37:02;26.10;26.60
69990;DHT22;57331;52.054;5.294;2023-06-26T10:39:49;25.40;25.00
69990;DHT22;57331;52.054;5.294;2023-06-26T10:42:17;27.70;25.60
69990;DHT22;57331;52.054;5.294;2023-06-26T10:44:48;27.40;25.10
69990;DHT22;57331;52.054;5.294;2023-06-26T10:47:32;27.80;25.60
69990;DHT22;57331;52.054;5.294;2023-06-26T10:50:28;26.30;22.90
69990;DHT22;57331;52.054;5.294;2023-06-26T10:56:05;26.80;15.80
69990;DHT22;57331;52.054;5.294;2023-06-26T10:58:40;25.80;23.30
69990;DHT22;57331;52.054;5.294;2023-06-26T11:03:45;27.10;24.70
69990;DHT22;57331;52.054;5.294;2023-06-26T11:06:14;27.00;24.90
69990;DHT22;57331;52.054;5.294;2023-06-26T11:11:12;26.20;25.50
69990;DHT22;57331;52.054;5.294;2023-06-26T11:13:40;26.00;17.10
69990;DHT22;57331;52.054;5.294;2023-06-26T11:16:07;25.00;23.50
69990;DHT22;57331;52.054;5.294;2023-06-26T11:18:34;25.30;25.30
69990;DHT22;57331;52.054;5.294;2023-06-26T11:21:08;26.00;24.20
69990;DHT22;57331;52.054;5.294;2023-06-26T11:23:37;26.00;16.90
69990;DHT22;57331;52.054;5.294;2023-06-26T11:26:17;27.10;24.70
69990;DHT22;57331;52.054;5.294;2023-06-26T11:28:53;24.60;23.00
69990;DHT22;57331;52.054;5.294;2023-06-26T11:31:25;27.40;24.90
69990;DHT22;57331;52.054;5.294;2023-06-26T11:33:53;26.70;24.90
69990;DHT22;57331;52.054;5.294;2023-06-26T11:36:23;25.90;16.90
69990;DHT22;57331;52.054;5.294;2023-06-26T11:38:59;25.30;23.90
69990;DHT22;57331;52.054;5.294;2023-06-26T11:41:30;26.50;24.40
69990;DHT22;57331;52.054;5.294;2023-06-26T11:44:05;26.00;24.00
69990;DHT22;57331;52.054;5.294;2023-06-26T11:46:34;24.70;23.20
69990;DHT22;57331;52.054;5.294;2023-06-26T11:49:07;24.70;23.00
69990;DHT22;57331;52.054;5.294;2023-06-26T11:51:35;26.60;16.20
69990;DHT22;57331;52.054;5.294;2023-06-26T11:54:03;26.50;15.70
69990;DHT22;57331;52.054;5.294;2023-06-26T11:56:31;25.40;21.70
69990;DHT22;57331;52.054;5.294;2023-06-26T11:59:09;26.90;15.20
69990;DHT22;57331;52.054;5.294;2023-06-26T12:01:42;27.60;21.40
69990;DHT22;57331;52.054;5.294;2023-06-26T12:04:13;26.60;13.40
69990;DHT22;57331;52.054;5.294;2023-06-26T12:06:45;27.40;20.70
69990;DHT22;57331;52.054;5.294;2023-06-26T12:09:13;26.50;12.90
69990;DHT22;57331;52.054;5.294;2023-06-26T12:11:42;26.20;22.00
69990;DHT22;57331;52.054;5.294;2023-06-26T12:14:10;25.50;20.70
69990;DHT22;57331;52.054;5.294;2023-06-26T12:16:38;26.00;21.70
69990;DHT22;57331;52.054;5.294;2023-06-26T12:19:06;24.60;19.40
69990;DHT22;57331;52.054;5.294;2023-06-26T12:24:04;28.10;21.90
69990;DHT22;57331;52.054;5.294;2023-06-26T12:26:32;27.50;19.80
69990;DHT22;57331;52.054;5.294;2023-06-26T12:31:33;27.00;19.60
69990;DHT22;57331;52.054;5.294;2023-06-26T12:34:01;26.80;11.50
69990;DHT22;57331;52.054;5.294;2023-06-26T12:36:28;26.70;13.00
69990;DHT22;57331;52.054;5.294;2023-06-26T12:38:55;26.30;18.90
69990;DHT22;57331;52.054;5.294;2023-06-26T12:41:24;26.00;16.10
69990;DHT22;57331;52.054;5.294;2023-06-26T12:43:56;27.40;9.90
69990;DHT22;57331;52.054;5.294;2023-06-26T12:46:35;27.30;11.80
69990;DHT22;57331;52.054;5.294;2023-06-26T12:49:03;27.20;10.90
69990;DHT22;57331;52.054;5.294;2023-06-26T12:51:35;26.60;18.50
69990;DHT22;57331;52.054;5.294;2023-06-26T12:54:03;27.10;11.60
69990;DHT22;57331;52.054;5.294;2023-06-26T12:56:29;28.30;18.60
69990;DHT22;57331;52.054;5.294;2023-06-26T12:58:56;27.30;18.40
69990;DHT22;57331;52.054;5.294;2023-06-26T13:01:23;28.00;11.00
69990;DHT22;57331;52.054;5.294;2023-06-26T13:03:51;28.00;19.40
69990;DHT22;57331;52.054;5.294;2023-06-26T13:06:19;25.00;19.30
69990;DHT22;57331;52.054;5.294;2023-06-26T13:08:46;24.10;20.80
69990;DHT22;57331;52.054;5.294;2023-06-26T13:11:13;24.20;22.30
69990;DHT22;57331;52.054;5.294;2023-06-26T13:13:40;26.30;22.70
69990;DHT22;57331;52.054;5.294;2023-06-26T13:16:06;25.80;15.40
69990;DHT22;57331;52.054;5.294;2023-06-26T13:18:33;28.00;22.40
69990;DHT22;57331;52.054;5.294;2023-06-26T13:21:00;26.80;14.60
69990;DHT22;57331;52.054;5.294;2023-06-26T13:23:27;27.20;13.60
69990;DHT22;57331;52.054;5.294;2023-06-26T13:25:54;27.30;13.00
69990;DHT22;57331;52.054;5.294;2023-06-26T13:28:21;27.20;12.80
69990;DHT22;57331;52.054;5.294;2023-06-26T13:30:49;27.10;12.90
69990;DHT22;57331;52.054;5.294;2023-06-26T13:33:16;27.20;13.70
69990;DHT22;57331;52.054;5.294;2023-06-26T13:35:43;27.00;19.20
69990;DHT22;57331;52.054;5.294;2023-06-26T13:38:10;27.80;12.90
69990;DHT22;57331;52.054;5.294;2023-06-26T13:40:37;28.80;18.50
69990;DHT22;57331;52.054;5.294;2023-06-26T13:43:04;28.30;19.10
69990;DHT22;57331;52.054;5.294;2023-06-26T13:45:31;27.50;17.30
69990;DHT22;57331;52.054;5.294;2023-06-26T13:47:58;28.50;19.10
69990;DHT22;57331;52.054;5.294;2023-06-26T13:50:25;27.30;10.90
69990;DHT22;57331;52.054;5.294;2023-06-26T13:53:03;27.50;19.40
69990;DHT22;57331;52.054;5.294;2023-06-26T13:55:30;26.50;20.90
69990;DHT22;57331;52.054;5.294;2023-06-26T13:57:57;26.20;20.30
69990;DHT22;57331;52.054;5.294;2023-06-26T14:00:25;26.60;12.40
69990;DHT22;57331;52.054;5.294;2023-06-26T14:02:52;27.10;12.10
69990;DHT22;57331;52.054;5.294;2023-06-26T14:05:19;26.00;19.10
69990;DHT22;57331;52.054;5.294;2023-06-26T14:08:02;25.50;19.30
69990;DHT22;57331;52.054;5.294;2023-06-26T14:10:30;26.50;12.40
69990;DHT22;57331;52.054;5.294;2023-06-26T14:12:57;27.10;20.80
69990;DHT22;57331;52.054;5.294;2023-06-26T14:15:24;27.10;20.50
69990;DHT22;57331;52.054;5.294;2023-06-26T14:17:51;26.00;19.70
69990;DHT22;57331;52.054;5.294;2023-06-26T14:20:18;24.80;19.30
69990;DHT22;57331;52.054;5.294;2023-06-26T14:22:48;27.10;21.00
69990;DHT22;57331;52.054;5.294;2023-06-26T14:25:16;27.80;20.80
69990;DHT22;57331;52.054;5.294;2023-06-26T14:27:43;26.60;12.70
69990;DHT22;57331;52.054;5.294;2023-06-26T14:30:11;25.10;18.40
69990;DHT22;57331;52.054;5.294;2023-06-26T14:32:38;27.00;19.50
69990;DHT22;57331;52.054;5.294;2023-06-26T14:35:05;27.00;11.30
69990;DHT22;57331;52.054;5.294;2023-06-26T14:37:32;28.00;18.80
69990;DHT22;57331;52.054;5.294;2023-06-26T14:39:59;26.40;17.80
69990;DHT22;57331;52.054;5.294;2023-06-26T14:42:27;26.20;19.00
69990;DHT22;57331;52.054;5.294;2023-06-26T14:44:54;26.20;18.20
69990;DHT22;57331;52.054;5.294;2023-06-26T14:47:21;25.80;19.30
69990;DHT22;57331;52.054;5.294;2023-06-26T14:49:48;26.60;18.60
69990;DHT22;57331;52.054;5.294;2023-06-26T14:52:15;26.90;11.40
69990;DHT22;57331;52.054;5.294;2023-06-26T14:54:42;27.00;11.90
69990;DHT22;57331;52.054;5.294;2023-06-26T14:57:09;27.50;11.60
69990;DHT22;57331;52.054;5.294;2023-06-26T14:59:36;29.00;18.20
69990;DHT22;57331;52.054;5.294;2023-06-26T15:02:03;27.70;10.70
69990;DHT22;57331;52.054;5.294;2023-06-26T15:04:31;26.80;15.70
69990;DHT22;57331;52.054;5.294;2023-06-26T15:06:58;27.80;9.00
69990;DHT22;57331;52.054;5.294;2023-06-26T15:09:25;27.20;18.50
69990;DHT22;57331;52.054;5.294;2023-06-26T15:11:52;27.50;19.30
69990;DHT22;57331;52.054;5.294;2023-06-26T15:14:19;27.60;11.10
69990;DHT22;57331;52.054;5.294;2023-06-26T15:16:46;27.60;18.50
69990;DHT22;57331;52.054;5.294;2023-06-26T15:19:13;27.80;18.60
69990;DHT22;57331;52.054;5.294;2023-06-26T15:21:40;27.00;10.80
69990;DHT22;57331;52.054;5.294;2023-06-26T15:24:09;28.70;19.00
69990;DHT22;57331;52.054;5.294;2023-06-26T15:26:35;27.30;17.50
69990;DHT22;57331;52.054;5.294;2023-06-26T15:29:03;27.40;18.00
69990;DHT22;57331;52.054;5.294;2023-06-26T15:31:30;26.70;16.60
69990;DHT22;57331;52.054;5.294;2023-06-26T15:33:57;24.00;15.10
69990;DHT22;57331;52.054;5.294;2023-06-26T15:36:26;27.30;9.20
69990;DHT22;57331;52.054;5.294;2023-06-26T15:38:53;27.40;9.60
69990;DHT22;57331;52.054;5.294;2023-06-26T15:41:20;29.10;17.70
69990;DHT22;57331;52.054;5.294;2023-06-26T15:43:47;27.80;10.10
69990;DHT22;57331;52.054;5.294;2023-06-26T15:46:14;28.00;10.00
69990;DHT22;57331;52.054;5.294;2023-06-26T15:48:41;28.10;16.70
69990;DHT22;57331;52.054;5.294;2023-06-26T15:51:08;26.30;18.00
69990;DHT22;57331;52.054;5.294;2023-06-26T15:53:37;26.90;19.40
69990;DHT22;57331;52.054;5.294;2023-06-26T15:56:07;25.50;18.70
69990;DHT22;57331;52.054;5.294;2023-06-26T15:58:35;28.20;20.10
69990;DHT22;57331;52.054;5.294;2023-06-26T16:01:02;27.30;11.10
69990;DHT22;57331;52.054;5.294;2023-06-26T16:03:30;27.50;11.00
69990;DHT22;57331;52.054;5.294;2023-06-26T16:05:56;28.50;19.40
69990;DHT22;57331;52.054;5.294;2023-06-26T16:08:23;27.20;10.70
69990;DHT22;57331;52.054;5.294;2023-06-26T16:10:52;26.00;19.80
69990;DHT22;57331;52.054;5.294;2023-06-26T16:13:19;26.90;20.40
69990;DHT22;57331;52.054;5.294;2023-06-26T16:15:48;25.80;19.30
69990;DHT22;57331;52.054;5.294;2023-06-26T16:18:15;25.80;12.00
69990;DHT22;57331;52.054;5.294;2023-06-26T16:20:43;24.20;20.30
69990;DHT22;57331;52.054;5.294;2023-06-26T16:23:10;25.40;13.30
69990;DHT22;57331;52.054;5.294;2023-06-26T16:25:37;25.00;20.50
69990;DHT22;57331;52.054;5.294;2023-06-26T16:28:04;26.50;21.20
69990;DHT22;57331;52.054;5.294;2023-06-26T16:30:31;27.60;21.70
69990;DHT22;57331;52.054;5.294;2023-06-26T16:33:01;27.40;21.60
69990;DHT22;57331;52.054;5.294;2023-06-26T16:35:28;26.60;20.10
69990;DHT22;57331;52.054;5.294;2023-06-26T16:38:01;26.90;12.30
69990;DHT22;57331;52.054;5.294;2023-06-26T16:40:29;27.20;12.20
69990;DHT22;57331;52.054;5.294;2023-06-26T16:42:56;27.40;11.40
69990;DHT22;57331;52.054;5.294;2023-06-26T16:45:23;27.10;11.10
69990;DHT22;57331;52.054;5.294;2023-06-26T16:47:50;25.20;19.20
69990;DHT22;57331;52.054;5.294;2023-06-26T16:50:18;26.50;21.30
69990;DHT22;57331;52.054;5.294;2023-06-26T16:52:45;25.80;20.30
69990;DHT22;57331;52.054;5.294;2023-06-26T16:55:12;26.80;20.80
69990;DHT22;57331;52.054;5.294;2023-06-26T16:57:39;24.80;21.10
69990;DHT22;57331;52.054;5.294;2023-06-26T17:00:07;25.90;22.60
69990;DHT22;57331;52.054;5.294;2023-06-26T17:02:34;26.00;23.30
69990;DHT22;57331;52.054;5.294;2023-06-26T17:05:01;25.00;22.70
69990;DHT22;57331;52.054;5.294;2023-06-26T17:07:28;23.80;21.50
69990;DHT22;57331;52.054;5.294;2023-06-26T17:12:25;23.40;22.20
69990;DHT22;57331;52.054;5.294;2023-06-26T17:14:53;26.00;23.90
69990;DHT22;57331;52.054;5.294;2023-06-26T17:17:20;24.20;23.60
69990;DHT22;57331;52.054;5.294;2023-06-26T17:19:49;24.70;15.50
69990;DHT22;57331;52.054;5.294;2023-06-26T17:22:16;26.10;24.50
69990;DHT22;57331;52.054;5.294;2023-06-26T17:24:43;24.40;23.20
69990;DHT22;57331;52.054;5.294;2023-06-26T17:27:11;23.90;22.70
69990;DHT22;57331;52.054;5.294;2023-06-26T17:29:39;25.80;22.70
69990;DHT22;57331;52.054;5.294;2023-06-26T17:32:07;24.90;23.20
69990;DHT22;57331;52.054;5.294;2023-06-26T17:34:35;23.40;23.20
69990;DHT22;57331;52.054;5.294;2023-06-26T17:39:30;24.00;22.50
69990;DHT22;57331;52.054;5.294;2023-06-26T17:41:58;25.50;22.10
69990;DHT22;57331;52.054;5.294;2023-06-26T17:44:26;24.90;21.90
69990;DHT22;57331;52.054;5.294;2023-06-26T17:46:56;26.20;17.70
69990;DHT22;57331;52.054;5.294;2023-06-26T17:49:23;25.10;22.80
69990;DHT22;57331;52.054;5.294;2023-06-26T17:51:50;24.40;23.20
69990;DHT22;57331;52.054;5.294;2023-06-26T17:54:17;23.30;22.70
69990;DHT22;57331;52.054;5.294;2023-06-26T17:56:45;25.90;24.30
69990;DHT22;57331;52.054;5.294;2023-06-26T17:59:13;24.40;15.00
69990;DHT22;57331;52.054;5.294;2023-06-26T18:01:41;25.80;24.60
69990;DHT22;57331;52.054;5.294;2023-06-26T18:04:09;24.40;15.60
69990;DHT22;57331;52.054;5.294;2023-06-26T18:09:04;23.20;23.70
69990;DHT22;57331;52.054;5.294;2023-06-26T18:11:32;24.60;24.10
69990;DHT22;57331;52.054;5.294;2023-06-26T18:14:00;23.30;23.10
69990;DHT22;57331;52.054;5.294;2023-06-26T18:16:27;25.90;24.30
69990;DHT22;57331;52.054;5.294;2023-06-26T18:18:55;25.60;24.10
69990;DHT22;57331;52.054;5.294;2023-06-26T18:21:27;25.60;24.30
69990;DHT22;57331;52.054;5.294;2023-06-26T18:23:54;23.70;23.40
69990;DHT22;57331;52.054;5.294;2023-06-26T18:31:19;25.80;24.80
69990;DHT22;57331;52.054;5.294;2023-06-26T18:33:46;25.90;25.20
69990;DHT22;57331;52.054;5.294;2023-06-26T18:36:13;23.70;24.50
69990;DHT22;57331;52.054;5.294;2023-06-26T18:38:42;23.00;24.80
69990;DHT22;57331;52.054;5.294;2023-06-26T18:41:10;23.80;17.00
69990;DHT22;57331;52.054;5.294;2023-06-26T18:43:39;24.60;26.70
69990;DHT22;57331;52.054;5.294;2023-06-26T18:48:34;23.40;27.30
69990;DHT22;57331;52.054;5.294;2023-06-26T18:51:01;22.60;22.10
69990;DHT22;57331;52.054;5.294;2023-06-26T18:53:28;24.20;28.30
69990;DHT22;57331;52.054;5.294;2023-06-26T18:58:22;22.50;27.90
69990;DHT22;57331;52.054;5.294;2023-06-26T19:00:50;24.40;29.30
69990;DHT22;57331;52.054;5.294;2023-06-26T19:03:17;21.50;28.10
69990;DHT22;57331;52.054;5.294;2023-06-26T19:10:39;22.40;26.70
69990;DHT22;57331;52.054;5.294;2023-06-26T19:13:09;21.00;29.10
69990;DHT22;57331;52.054;5.294;2023-06-26T19:15:36;21.10;29.50
69990;DHT22;57331;52.054;5.294;2023-06-26T19:18:03;23.50;31.30
69990;DHT22;57331;52.054;5.294;2023-06-26T19:22:58;20.90;30.40
69990;DHT22;57331;52.054;5.294;2023-06-26T19:25:24;20.60;30.50
69990;DHT22;57331;52.054;5.294;2023-06-26T19:30:19;20.90;31.50
69990;DHT22;57331;52.054;5.294;2023-06-26T19:35:13;23.20;24.10
69990;DHT22;57331;52.054;5.294;2023-06-26T19:37:40;20.40;32.00
69990;DHT22;57331;52.054;5.294;2023-06-26T19:40:31;20.70;32.50
69990;DHT22;57331;52.054;5.294;2023-06-26T19:42:58;22.50;33.90
69990;DHT22;57331;52.054;5.294;2023-06-26T19:45:25;20.50;33.10
69990;DHT22;57331;52.054;5.294;2023-06-26T19:50:21;21.80;34.80
69990;DHT22;57331;52.054;5.294;2023-06-26T19:52:48;22.80;35.60